createdAt,value
2023-05-05T00:00:21.857Z,9.51
2023-05-05T00:01:21.858Z,9.51
2023-05-05T00:02:21.877Z,9.51
2023-05-05T00:03:21.991Z,9.51
2023-05-05T00:04:22.167Z,9.51
2023-05-05T00:05:21.804Z,9.52
2023-05-05T00:06:21.799Z,9.52
2023-05-05T00:07:21.758Z,9.51
2023-05-05T00:08:21.780Z,9.51
2023-05-05T00:09:21.790Z,9.50
2023-05-05T00:10:21.766Z,9.49
2023-05-05T00:11:21.743Z,9.48
2023-05-05T00:12:21.753Z,9.48
2023-05-05T00:13:21.735Z,9.46
2023-05-05T00:14:21.691Z,9.45
2023-05-05T00:15:21.702Z,9.44
2023-05-05T00:16:21.749Z,9.44
2023-05-05T00:17:21.708Z,9.44
2023-05-05T00:18:21.699Z,9.42
2023-05-05T00:19:21.650Z,9.40
2023-05-05T00:20:21.691Z,9.38
2023-05-05T00:21:21.649Z,9.36
2023-05-05T00:22:21.642Z,9.35
2023-05-05T00:23:21.610Z,9.34
2023-05-05T00:24:21.595Z,9.32
2023-05-05T00:25:21.604Z,9.32
2023-05-05T00:26:21.594Z,9.31
2023-05-05T00:27:21.585Z,9.31
2023-05-05T00:28:21.559Z,9.30
2023-05-05T00:29:21.558Z,9.30
2023-05-05T00:30:21.570Z,9.29
2023-05-05T00:31:21.591Z,9.29
2023-05-05T00:32:21.576Z,9.28
2023-05-05T00:33:21.566Z,9.27
2023-05-05T00:34:21.536Z,9.27
2023-05-05T00:35:21.509Z,9.26
2023-05-05T00:36:21.470Z,9.24
2023-05-05T00:37:21.528Z,9.23
2023-05-05T00:38:21.457Z,9.23
2023-05-05T00:39:21.485Z,9.24
2023-05-05T00:40:21.471Z,9.23
2023-05-05T00:41:21.466Z,9.23
2023-05-05T00:42:21.411Z,9.22
2023-05-05T00:43:21.397Z,9.22
2023-05-05T00:44:21.386Z,9.22
2023-05-05T00:45:21.381Z,9.21
2023-05-05T00:46:21.418Z,9.21
2023-05-05T00:47:21.392Z,9.21
2023-05-05T00:48:21.387Z,9.21
2023-05-05T00:49:21.387Z,9.22
2023-05-05T00:50:21.344Z,9.21
2023-05-05T00:51:21.334Z,9.19
2023-05-05T00:52:21.316Z,9.18
2023-05-05T00:53:21.348Z,9.16
2023-05-05T00:54:21.289Z,9.15
2023-05-05T00:55:21.345Z,9.13
2023-05-05T00:56:21.270Z,9.12
2023-05-05T00:57:21.289Z,9.09
2023-05-05T00:58:21.292Z,9.07
2023-05-05T00:59:21.283Z,9.04
2023-05-05T01:00:21.232Z,9.01
2023-05-05T01:01:21.268Z,8.98
2023-05-05T01:02:21.238Z,8.95
2023-05-05T01:03:21.262Z,8.93
2023-05-05T01:04:21.208Z,8.91
2023-05-05T01:05:21.195Z,8.91
2023-05-05T01:06:21.205Z,8.93
2023-05-05T01:07:21.224Z,8.96
2023-05-05T01:08:21.187Z,9.00
2023-05-05T01:09:21.153Z,9.02
2023-05-05T01:10:21.243Z,9.02
2023-05-05T01:11:21.124Z,9.01
2023-05-05T01:12:21.183Z,8.99
2023-05-05T01:13:21.111Z,8.96
2023-05-05T01:14:21.113Z,8.94
2023-05-05T01:15:21.084Z,8.93
2023-05-05T01:16:21.152Z,8.94
2023-05-05T01:17:21.091Z,8.95
2023-05-05T01:18:21.053Z,8.95
2023-05-05T01:19:21.067Z,8.95
2023-05-05T01:20:21.039Z,8.96
2023-05-05T01:21:21.026Z,8.97
2023-05-05T01:22:21.119Z,8.97
2023-05-05T01:23:21.027Z,8.97
2023-05-05T01:24:21.014Z,8.96
2023-05-05T01:25:20.974Z,8.96
2023-05-05T01:26:21.002Z,8.96
2023-05-05T01:27:21.015Z,8.95
2023-05-05T01:28:20.993Z,8.93
2023-05-05T01:29:20.988Z,8.91
2023-05-05T01:30:20.967Z,8.90
2023-05-05T01:31:20.966Z,8.90
2023-05-05T01:32:20.941Z,8.91
2023-05-05T01:33:20.962Z,8.90
2023-05-05T01:34:20.909Z,8.89
2023-05-05T01:35:20.882Z,8.86
2023-05-05T01:36:20.869Z,8.85
2023-05-05T01:37:20.864Z,8.85
2023-05-05T01:38:20.854Z,8.85
2023-05-05T01:39:20.869Z,8.84
2023-05-05T01:40:20.841Z,8.84
2023-05-05T01:41:20.863Z,8.82
2023-05-05T01:42:20.811Z,8.81
2023-05-05T01:43:20.812Z,8.79
2023-05-05T01:44:20.823Z,8.76
2023-05-05T01:45:20.787Z,8.74
2023-05-05T01:46:20.920Z,8.73
2023-05-05T01:47:20.908Z,8.74
2023-05-05T01:48:20.743Z,8.77
2023-05-05T01:49:20.760Z,8.80
2023-05-05T01:50:20.789Z,8.83
2023-05-05T01:51:20.729Z,8.87
2023-05-05T01:52:20.723Z,8.91
2023-05-05T01:53:20.720Z,8.93
2023-05-05T01:54:20.697Z,8.95
2023-05-05T01:55:20.706Z,8.97
2023-05-05T01:56:20.665Z,9.00
2023-05-05T01:57:20.670Z,9.02
2023-05-05T01:58:20.672Z,9.04
2023-05-05T01:59:20.667Z,9.07
2023-05-05T02:00:20.619Z,9.09
2023-05-05T02:01:20.663Z,9.11
2023-05-05T02:02:20.657Z,9.12
2023-05-05T02:03:20.718Z,9.13
2023-05-05T02:04:20.617Z,9.16
2023-05-05T02:05:20.611Z,9.19
2023-05-05T02:06:20.597Z,9.23
2023-05-05T02:07:20.558Z,9.26
2023-05-05T02:08:20.543Z,9.28
2023-05-05T02:09:20.540Z,9.29
2023-05-05T02:10:20.535Z,9.29
2023-05-05T02:11:20.591Z,9.31
2023-05-05T02:12:20.513Z,9.32
2023-05-05T02:13:20.657Z,9.33
2023-05-05T02:14:20.471Z,9.33
2023-05-05T02:15:20.499Z,9.34
2023-05-05T02:16:20.525Z,9.35
2023-05-05T02:17:20.473Z,9.36
2023-05-05T02:18:20.461Z,9.38
2023-05-05T02:19:20.441Z,9.40
2023-05-05T02:20:20.440Z,9.44
2023-05-05T02:21:20.446Z,9.48
2023-05-05T02:22:20.407Z,9.54
2023-05-05T02:23:20.485Z,9.60
2023-05-05T02:24:20.406Z,9.67
2023-05-05T02:25:20.372Z,9.71
2023-05-05T02:26:20.371Z,9.73
2023-05-05T02:27:20.345Z,9.75
2023-05-05T02:28:20.364Z,9.77
2023-05-05T02:29:20.378Z,9.79
2023-05-05T02:30:20.334Z,9.79
2023-05-05T02:31:20.368Z,9.78
2023-05-05T02:32:20.341Z,9.77
2023-05-05T02:33:20.297Z,9.74
2023-05-05T02:34:20.301Z,9.70
2023-05-05T02:35:20.288Z,9.67
2023-05-05T02:36:20.282Z,9.65
2023-05-05T02:37:20.245Z,9.63
2023-05-05T02:38:20.286Z,9.62
2023-05-05T02:39:20.240Z,9.61
2023-05-05T02:40:20.295Z,9.60
2023-05-05T02:41:20.225Z,9.60
2023-05-05T02:42:20.207Z,9.59
2023-05-05T02:43:20.216Z,9.58
2023-05-05T02:44:20.201Z,9.57
2023-05-05T02:45:20.228Z,9.57
2023-05-05T02:46:20.258Z,9.56
2023-05-05T02:47:20.247Z,9.55
2023-05-05T02:48:20.133Z,9.54
2023-05-05T02:49:20.127Z,9.53
2023-05-05T02:50:20.131Z,9.51
2023-05-05T02:51:20.113Z,9.49
2023-05-05T02:52:20.105Z,9.45
2023-05-05T02:53:20.088Z,9.43
2023-05-05T02:54:20.099Z,9.42
2023-05-05T02:55:20.087Z,9.42
2023-05-05T02:56:20.057Z,9.44
2023-05-05T02:57:20.048Z,9.46
2023-05-05T02:58:20.050Z,9.47
2023-05-05T02:59:20.073Z,9.48
2023-05-05T03:00:20.099Z,9.48
2023-05-05T03:01:20.032Z,9.48
2023-05-05T03:02:20.109Z,9.47
2023-05-05T03:03:20.065Z,9.46
2023-05-05T03:04:19.995Z,9.46
2023-05-05T03:05:20.066Z,9.48
2023-05-05T03:06:19.974Z,9.50
2023-05-05T03:07:19.972Z,9.52
2023-05-05T03:08:19.936Z,9.54
2023-05-05T03:09:19.935Z,9.56
2023-05-05T03:10:19.929Z,9.58
2023-05-05T03:11:19.904Z,9.60
2023-05-05T03:12:19.926Z,9.63
2023-05-05T03:13:19.934Z,9.66
2023-05-05T03:14:19.889Z,9.70
2023-05-05T03:15:19.909Z,9.73
2023-05-05T03:16:19.875Z,9.77
2023-05-05T03:17:19.821Z,9.79
2023-05-05T03:18:19.860Z,9.81
2023-05-05T03:19:19.874Z,9.82
2023-05-05T03:20:19.828Z,9.83
2023-05-05T03:21:19.812Z,9.85
2023-05-05T03:22:19.759Z,9.87
2023-05-05T03:23:19.749Z,9.88
2023-05-05T03:24:19.748Z,9.88
2023-05-05T03:25:19.720Z,9.86
2023-05-05T03:26:19.752Z,9.83
2023-05-05T03:27:19.717Z,9.81
2023-05-05T03:28:19.678Z,9.79
2023-05-05T03:29:19.669Z,9.78
2023-05-05T03:30:19.658Z,9.78
2023-05-05T03:31:19.738Z,9.78
2023-05-05T03:32:19.679Z,9.79
2023-05-05T03:33:19.710Z,9.80
2023-05-05T03:34:19.682Z,9.81
2023-05-05T03:35:19.623Z,9.82
2023-05-05T03:36:19.601Z,9.83
2023-05-05T03:37:19.603Z,9.84
2023-05-05T03:38:19.581Z,9.85
2023-05-05T03:39:19.655Z,9.86
2023-05-05T03:40:19.696Z,9.87
2023-05-05T03:41:19.539Z,9.88
2023-05-05T03:42:19.548Z,9.88
2023-05-05T03:43:19.571Z,9.88
2023-05-05T03:44:19.523Z,9.87
2023-05-05T03:45:19.508Z,9.86
2023-05-05T03:46:19.515Z,9.85
2023-05-05T03:47:19.482Z,9.85
2023-05-05T03:48:19.503Z,9.85
2023-05-05T03:49:19.459Z,9.86
2023-05-05T03:50:19.448Z,9.87
2023-05-05T03:51:19.465Z,9.89
2023-05-05T03:52:19.434Z,9.92
2023-05-05T03:53:19.497Z,9.95
2023-05-05T03:54:19.417Z,9.98
2023-05-05T03:55:19.402Z,10.00
2023-05-05T03:56:19.389Z,10.01
2023-05-05T03:57:19.407Z,9.99
2023-05-05T03:58:19.409Z,9.96
2023-05-05T03:59:19.348Z,9.92
2023-05-05T04:00:19.408Z,9.87
2023-05-05T04:01:19.380Z,9.81
2023-05-05T04:02:19.385Z,9.74
2023-05-05T04:03:19.535Z,9.67
2023-05-05T04:04:19.371Z,9.60
2023-05-05T04:05:19.295Z,9.55
2023-05-05T04:06:19.311Z,9.52
2023-05-05T04:07:19.373Z,9.51
2023-05-05T04:08:19.273Z,9.52
2023-05-05T04:09:19.285Z,9.56
2023-05-05T04:10:19.282Z,9.60
2023-05-05T04:11:19.240Z,9.66
2023-05-05T04:12:19.228Z,9.75
2023-05-05T04:13:19.271Z,9.84
2023-05-05T04:14:19.251Z,9.94
2023-05-05T04:15:19.228Z,10.04
2023-05-05T04:16:19.217Z,10.15
2023-05-05T04:17:19.172Z,10.25
2023-05-05T04:18:19.162Z,10.34
2023-05-05T04:19:19.176Z,10.41
2023-05-05T04:20:19.154Z,10.46
2023-05-05T04:21:19.167Z,10.49
2023-05-05T04:22:19.126Z,10.51
2023-05-05T04:23:19.117Z,10.53
2023-05-05T04:24:19.112Z,10.54
2023-05-05T04:25:19.111Z,10.54
2023-05-05T04:26:19.110Z,10.54
2023-05-05T04:27:19.115Z,10.53
2023-05-05T04:28:20.966Z,10.52
2023-05-05T04:29:19.075Z,10.51
2023-05-05T04:30:19.075Z,10.50
2023-05-05T04:31:19.044Z,10.50
2023-05-05T04:32:19.078Z,10.51
2023-05-05T04:33:19.026Z,10.52
2023-05-05T04:34:19.021Z,10.53
2023-05-05T04:35:18.990Z,10.53
2023-05-05T04:36:19.010Z,10.51
2023-05-05T04:37:18.995Z,10.49
2023-05-05T04:38:19.054Z,10.45
2023-05-05T04:39:18.995Z,10.41
2023-05-05T04:40:18.965Z,10.39
2023-05-05T04:41:18.929Z,10.37
2023-05-05T04:42:18.936Z,10.37
2023-05-05T04:43:18.926Z,10.38
2023-05-05T04:44:18.903Z,10.42
2023-05-05T04:45:18.909Z,10.47
2023-05-05T04:46:18.926Z,10.52
2023-05-05T04:47:18.888Z,10.57
2023-05-05T04:48:18.930Z,10.61
2023-05-05T04:49:18.853Z,10.64
2023-05-05T04:50:18.843Z,10.67
2023-05-05T04:51:18.862Z,10.69
2023-05-05T04:52:18.834Z,10.70
2023-05-05T04:53:18.816Z,10.71
2023-05-05T04:54:18.828Z,10.73
2023-05-05T04:55:18.808Z,10.76
2023-05-05T04:56:18.782Z,10.81
2023-05-05T04:57:18.784Z,10.88
2023-05-05T04:58:18.820Z,10.97
2023-05-05T04:59:18.745Z,11.07
2023-05-05T05:00:18.760Z,11.16
2023-05-05T05:01:18.758Z,11.23
2023-05-05T05:02:18.803Z,11.29
2023-05-05T05:03:18.764Z,11.34
2023-05-05T05:04:18.837Z,11.39
2023-05-05T05:05:18.700Z,11.44
2023-05-05T05:06:18.734Z,11.50
2023-05-05T05:07:18.682Z,11.56
2023-05-05T05:08:18.681Z,11.63
2023-05-05T05:09:18.673Z,11.69
2023-05-05T05:10:18.653Z,11.76
2023-05-05T05:11:18.649Z,11.84
2023-05-05T05:12:18.648Z,11.91
2023-05-05T05:13:18.829Z,11.97
2023-05-05T05:14:18.671Z,11.99
2023-05-05T05:15:18.606Z,11.97
2023-05-05T05:16:18.689Z,11.96
2023-05-05T05:17:18.610Z,11.93
2023-05-05T05:18:18.576Z,11.92
2023-05-05T05:19:18.617Z,11.93
2023-05-05T05:20:18.633Z,11.96
2023-05-05T05:21:18.872Z,12.01
2023-05-05T05:22:18.524Z,12.08
2023-05-05T05:23:18.617Z,12.16
2023-05-05T05:24:18.555Z,12.26
2023-05-05T05:25:19.487Z,12.36
2023-05-05T05:26:18.539Z,12.47
2023-05-05T05:27:18.482Z,12.58
2023-05-05T05:28:18.667Z,12.68
2023-05-05T05:29:18.472Z,12.76
2023-05-05T05:30:18.463Z,12.82
2023-05-05T05:31:18.476Z,12.88
2023-05-05T05:32:18.438Z,12.94
2023-05-05T05:33:18.440Z,13.00
2023-05-05T05:34:18.415Z,13.06
2023-05-05T05:35:18.395Z,13.10
2023-05-05T05:36:18.422Z,13.15
2023-05-05T05:37:18.370Z,13.21
2023-05-05T05:38:18.383Z,13.28
2023-05-05T05:39:18.381Z,13.35
2023-05-05T05:40:18.366Z,13.42
2023-05-05T05:41:18.318Z,13.48
2023-05-05T05:42:18.305Z,13.51
2023-05-05T05:43:18.398Z,13.53
2023-05-05T05:44:18.356Z,13.54
2023-05-05T05:45:18.306Z,13.57
2023-05-05T05:46:18.318Z,13.63
2023-05-05T05:47:18.265Z,13.70
2023-05-05T05:48:18.268Z,13.77
2023-05-05T05:49:18.265Z,13.85
2023-05-05T05:50:18.273Z,13.94
2023-05-05T05:51:18.260Z,14.04
2023-05-05T05:52:18.216Z,14.13
2023-05-05T05:53:18.206Z,14.24
2023-05-05T05:54:18.212Z,14.36
2023-05-05T05:55:18.249Z,14.49
2023-05-05T05:56:18.201Z,14.61
2023-05-05T05:57:18.232Z,14.70
2023-05-05T05:58:18.245Z,14.73
2023-05-05T05:59:18.140Z,14.74
2023-05-05T06:00:18.149Z,14.78
2023-05-05T06:01:18.138Z,14.84
2023-05-05T06:02:18.186Z,14.95
2023-05-05T06:03:18.246Z,15.07
2023-05-05T06:04:18.159Z,15.15
2023-05-05T06:05:18.068Z,15.23
2023-05-05T06:06:18.061Z,15.30
2023-05-05T06:07:18.078Z,15.34
2023-05-05T06:08:18.041Z,15.35
2023-05-05T06:09:18.036Z,15.35
2023-05-05T06:10:27.373Z,15.33
2023-05-05T06:11:18.004Z,15.29
2023-05-05T06:12:18.004Z,15.25
2023-05-05T06:13:18.054Z,15.26
2023-05-05T06:14:18.909Z,15.30
2023-05-05T06:15:17.977Z,15.38
2023-05-05T06:16:17.982Z,15.49
2023-05-05T06:17:17.949Z,15.58
2023-05-05T06:18:18.096Z,15.67
2023-05-05T06:19:17.951Z,15.78
2023-05-05T06:20:17.914Z,15.85
2023-05-05T06:21:17.899Z,15.84
2023-05-05T06:22:17.900Z,15.83
2023-05-05T06:23:17.898Z,15.85
2023-05-05T06:24:17.873Z,15.86
2023-05-05T06:25:17.872Z,15.90
2023-05-05T06:26:17.848Z,15.95
2023-05-05T06:27:17.856Z,16.02
2023-05-05T06:28:17.821Z,16.10
2023-05-05T06:29:17.820Z,16.19
2023-05-05T06:30:17.875Z,16.26
2023-05-05T06:31:17.832Z,16.25
2023-05-05T06:32:17.792Z,16.26
2023-05-05T06:33:17.782Z,16.33
2023-05-05T06:34:17.865Z,16.37
2023-05-05T06:35:17.784Z,16.38
2023-05-05T06:36:17.792Z,16.36
2023-05-05T06:37:17.761Z,16.36
2023-05-05T06:38:17.730Z,16.39
2023-05-05T06:39:17.742Z,16.42
2023-05-05T06:40:18.178Z,16.41
2023-05-05T06:41:17.712Z,16.34
2023-05-05T06:42:17.720Z,16.30
2023-05-05T06:43:17.748Z,16.31
2023-05-05T06:44:17.674Z,16.35
2023-05-05T06:45:17.689Z,16.43
2023-05-05T06:46:17.735Z,16.55
2023-05-05T06:47:17.641Z,16.65
2023-05-05T06:48:17.619Z,16.72
2023-05-05T06:49:17.618Z,16.82
2023-05-05T06:50:17.650Z,16.92
2023-05-05T06:51:17.648Z,17.00
2023-05-05T06:52:17.605Z,17.07
2023-05-05T06:53:17.617Z,17.13
2023-05-05T06:54:17.579Z,17.19
2023-05-05T06:55:17.559Z,17.26
2023-05-05T06:56:17.540Z,17.37
2023-05-05T06:57:17.586Z,17.50
2023-05-05T06:58:17.517Z,17.57
2023-05-05T06:59:17.534Z,17.58
2023-05-05T07:00:17.586Z,17.56
2023-05-05T07:01:17.561Z,17.54
2023-05-05T07:02:17.522Z,17.53
2023-05-05T07:03:17.516Z,17.49
2023-05-05T07:04:17.632Z,17.43
2023-05-05T07:05:17.461Z,17.39
2023-05-05T07:06:17.450Z,17.38
2023-05-05T07:07:17.433Z,17.33
2023-05-05T07:08:17.428Z,17.25
2023-05-05T07:09:17.670Z,17.22
2023-05-05T07:10:17.467Z,17.27
2023-05-05T07:11:17.398Z,17.35
2023-05-05T07:12:17.386Z,17.45
2023-05-05T07:13:17.606Z,17.48
2023-05-05T07:14:17.360Z,17.47
2023-05-05T07:15:27.336Z,17.47
2023-05-05T07:16:17.371Z,17.46
2023-05-05T07:17:17.357Z,17.41
2023-05-05T07:18:17.338Z,17.36
2023-05-05T07:19:17.322Z,17.32
2023-05-05T07:20:17.301Z,17.28
2023-05-05T07:21:17.290Z,17.28
2023-05-05T07:22:17.301Z,17.27
2023-05-05T07:23:17.383Z,17.25
2023-05-05T07:24:17.293Z,17.23
2023-05-05T07:25:17.284Z,17.18
2023-05-05T07:26:17.242Z,17.10
2023-05-05T07:27:17.244Z,17.00
2023-05-05T07:28:17.227Z,16.91
2023-05-05T07:29:17.232Z,16.86
2023-05-05T07:30:19.004Z,16.85
2023-05-05T07:31:17.232Z,16.85
2023-05-05T07:32:17.193Z,16.83
2023-05-05T07:33:17.181Z,16.84
2023-05-05T07:34:17.170Z,16.86
2023-05-05T07:35:17.192Z,16.88
2023-05-05T07:36:17.141Z,16.92
2023-05-05T07:37:17.134Z,16.97
2023-05-05T07:38:17.118Z,17.01
2023-05-05T07:39:18.115Z,17.06
2023-05-05T07:40:17.114Z,17.12
2023-05-05T07:41:17.092Z,17.18
2023-05-05T07:42:17.094Z,17.23
2023-05-05T07:43:17.102Z,17.24
2023-05-05T07:44:17.056Z,17.25
2023-05-05T07:45:17.045Z,17.28
2023-05-05T07:46:17.059Z,17.32
2023-05-05T07:47:17.026Z,17.36
2023-05-05T07:48:17.029Z,17.43
2023-05-05T07:49:17.012Z,17.53
2023-05-05T07:50:16.996Z,17.61
2023-05-05T07:51:17.002Z,17.66
2023-05-05T07:52:16.988Z,17.67
2023-05-05T07:53:17.048Z,17.68
2023-05-05T07:54:16.956Z,17.69
2023-05-05T07:55:16.956Z,17.72
2023-05-05T07:56:16.922Z,17.81
2023-05-05T07:57:16.970Z,17.91
2023-05-05T07:58:16.913Z,17.98
2023-05-05T07:59:16.920Z,17.96
2023-05-05T08:00:16.903Z,17.92
2023-05-05T08:01:16.916Z,17.92
2023-05-05T08:02:16.913Z,17.95
2023-05-05T08:03:16.929Z,17.94
2023-05-05T08:04:17.044Z,17.90
2023-05-05T08:05:16.875Z,17.90
2023-05-05T08:06:16.873Z,17.91
2023-05-05T08:07:16.875Z,17.97
2023-05-05T08:08:16.838Z,18.08
2023-05-05T08:09:16.798Z,18.18
2023-05-05T08:10:16.799Z,18.27
2023-05-05T08:11:16.833Z,18.32
2023-05-05T08:12:16.795Z,18.38
2023-05-05T08:13:16.874Z,18.51
2023-05-05T08:14:16.752Z,18.74
2023-05-05T08:15:16.732Z,18.90
2023-05-05T08:16:16.775Z,18.92
2023-05-05T08:17:16.719Z,18.80
2023-05-05T08:18:16.743Z,18.59
2023-05-05T08:19:25.241Z,18.43
2023-05-05T08:20:16.733Z,18.40
2023-05-05T08:21:16.833Z,18.45
2023-05-05T08:22:16.677Z,18.48
2023-05-05T08:23:16.657Z,18.42
2023-05-05T08:24:16.673Z,18.31
2023-05-05T08:25:16.687Z,18.18
2023-05-05T08:26:16.620Z,18.07
2023-05-05T08:27:16.628Z,17.99
2023-05-05T08:28:16.637Z,17.93
2023-05-05T08:29:16.598Z,17.89
2023-05-05T08:30:16.632Z,17.89
2023-05-05T08:31:16.627Z,17.87
2023-05-05T08:32:16.600Z,17.88
2023-05-05T08:33:16.630Z,17.96
2023-05-05T08:34:16.572Z,18.04
2023-05-05T08:35:16.591Z,18.11
2023-05-05T08:36:16.521Z,18.13
2023-05-05T08:37:16.541Z,18.14
2023-05-05T08:38:16.567Z,18.15
2023-05-05T08:39:16.524Z,18.18
2023-05-05T08:40:16.529Z,18.26
2023-05-05T08:41:16.571Z,18.40
2023-05-05T08:42:29.043Z,18.55
2023-05-05T08:43:16.476Z,18.68
2023-05-05T08:44:16.495Z,18.81
2023-05-05T08:45:16.468Z,18.92
2023-05-05T08:46:16.503Z,18.96
2023-05-05T08:47:16.434Z,18.86
2023-05-05T08:48:16.416Z,18.72
2023-05-05T08:49:16.415Z,18.61
2023-05-05T08:50:16.396Z,18.58
2023-05-05T08:51:16.392Z,18.59
2023-05-05T08:52:16.426Z,18.58
2023-05-05T08:53:16.389Z,18.56
2023-05-05T08:54:16.348Z,18.47
2023-05-05T08:55:16.374Z,18.37
2023-05-05T08:56:16.327Z,18.27
2023-05-05T08:57:16.335Z,18.20
2023-05-05T08:58:16.296Z,18.17
2023-05-05T08:59:16.327Z,18.21
2023-05-05T09:00:16.573Z,18.30
2023-05-05T09:01:16.369Z,18.41
2023-05-05T09:02:16.276Z,18.48
2023-05-05T09:03:16.476Z,18.48
2023-05-05T09:04:16.236Z,18.45
2023-05-05T09:05:16.258Z,18.39
2023-05-05T09:06:16.254Z,18.31
2023-05-05T09:07:16.223Z,18.23
2023-05-05T09:08:16.186Z,18.19
2023-05-05T09:09:16.222Z,18.21
2023-05-05T09:10:16.202Z,18.28
2023-05-05T09:11:16.166Z,18.33
2023-05-05T09:12:16.149Z,18.33
2023-05-05T09:13:16.281Z,18.37
2023-05-05T09:14:16.130Z,18.43
2023-05-05T09:15:16.149Z,18.47
2023-05-05T09:16:16.155Z,18.47
2023-05-05T09:17:16.101Z,18.46
2023-05-05T09:18:16.085Z,18.47
2023-05-05T09:19:16.104Z,18.59
2023-05-05T09:20:16.086Z,18.80
2023-05-05T09:21:16.088Z,19.03
2023-05-05T09:22:16.059Z,19.18
2023-05-05T09:23:16.079Z,19.28
2023-05-05T09:24:16.068Z,19.39
2023-05-05T09:25:16.060Z,19.42
2023-05-05T09:26:16.040Z,19.40
2023-05-05T09:27:16.091Z,19.37
2023-05-05T09:28:16.027Z,19.30
2023-05-05T09:29:15.994Z,19.29
2023-05-05T09:30:15.997Z,19.40
2023-05-05T09:31:16.382Z,19.57
2023-05-05T09:32:15.978Z,19.73
2023-05-05T09:33:16.023Z,19.83
2023-05-05T09:34:15.945Z,19.80
2023-05-05T09:35:15.950Z,19.73
2023-05-05T09:36:15.935Z,19.64
2023-05-05T09:37:15.901Z,19.49
2023-05-05T09:38:15.981Z,19.30
2023-05-05T09:39:15.914Z,19.11
2023-05-05T09:40:15.903Z,19.01
2023-05-05T09:41:15.871Z,18.92
2023-05-05T09:42:15.888Z,18.82
2023-05-05T09:43:15.857Z,18.75
2023-05-05T09:44:15.847Z,18.73
2023-05-05T09:45:15.845Z,18.75
2023-05-05T09:46:15.852Z,18.72
2023-05-05T09:47:28.507Z,18.60
2023-05-05T09:48:15.894Z,18.48
2023-05-05T09:49:15.826Z,18.39
2023-05-05T09:50:15.811Z,18.33
2023-05-05T09:51:15.770Z,18.32
2023-05-05T09:52:15.798Z,18.33
2023-05-05T09:53:15.775Z,18.39
2023-05-05T09:54:15.824Z,18.48
2023-05-05T09:55:15.728Z,18.56
2023-05-05T09:56:15.702Z,18.64
2023-05-05T09:57:15.700Z,18.70
2023-05-05T09:58:15.771Z,18.71
2023-05-05T09:59:15.674Z,18.65
2023-05-05T10:00:15.701Z,18.56
2023-05-05T10:01:15.692Z,18.52
2023-05-05T10:02:15.654Z,18.54
2023-05-05T10:03:15.698Z,18.58
2023-05-05T10:04:15.625Z,18.55
2023-05-05T10:05:15.684Z,18.47
2023-05-05T10:06:15.638Z,18.42
2023-05-05T10:07:15.610Z,18.38
2023-05-05T10:08:15.582Z,18.30
2023-05-05T10:09:15.570Z,18.20
2023-05-05T10:10:15.619Z,18.14
2023-05-05T10:11:15.569Z,18.12
2023-05-05T10:12:15.541Z,18.12
2023-05-05T10:13:15.600Z,18.09
2023-05-05T10:14:15.524Z,18.06
2023-05-05T10:15:15.512Z,18.07
2023-05-05T10:16:15.533Z,18.08
2023-05-05T10:17:15.490Z,18.09
2023-05-05T10:18:15.514Z,18.09
2023-05-05T10:19:15.494Z,18.13
2023-05-05T10:20:15.468Z,18.23
2023-05-05T10:21:15.451Z,18.40
2023-05-05T10:22:15.459Z,18.56
2023-05-05T10:23:15.460Z,18.56
2023-05-05T10:24:15.414Z,18.46
2023-05-05T10:25:15.432Z,18.36
2023-05-05T10:26:15.411Z,18.33
2023-05-05T10:27:15.398Z,18.41
2023-05-05T10:28:15.416Z,18.51
2023-05-05T10:29:15.426Z,18.58
2023-05-05T10:30:15.357Z,18.71
2023-05-05T10:31:25.221Z,18.90
2023-05-05T10:32:37.129Z,19.11
2023-05-05T10:33:30.814Z,19.22
2023-05-05T10:34:15.444Z,19.29
2023-05-05T10:35:15.338Z,19.43
2023-05-05T10:36:15.338Z,19.60
2023-05-05T10:37:15.306Z,19.74
2023-05-05T10:38:15.283Z,19.88
2023-05-05T10:39:15.294Z,19.92
2023-05-05T10:40:15.300Z,19.78
2023-05-05T10:41:15.266Z,19.59
2023-05-05T10:42:15.288Z,19.40
2023-05-05T10:43:15.275Z,19.20
2023-05-05T10:44:15.244Z,19.08
2023-05-05T10:45:15.281Z,19.01
2023-05-05T10:46:15.294Z,18.98
2023-05-05T10:47:15.280Z,18.95
2023-05-05T10:48:15.214Z,18.99
2023-05-05T10:49:15.221Z,19.13
2023-05-05T10:50:15.233Z,19.39
2023-05-05T10:51:23.954Z,19.72
2023-05-05T10:52:15.236Z,19.97
2023-05-05T10:53:15.378Z,20.02
2023-05-05T10:54:15.257Z,20.04
2023-05-05T10:55:15.179Z,20.20
2023-05-05T10:56:15.112Z,20.61
2023-05-05T10:57:15.101Z,21.14
2023-05-05T10:58:15.120Z,21.44
2023-05-05T10:59:15.120Z,21.38
2023-05-05T11:00:15.156Z,21.13
2023-05-05T11:01:15.119Z,20.96
2023-05-05T11:02:15.088Z,20.92
2023-05-05T11:03:15.186Z,20.83
2023-05-05T11:04:15.062Z,20.75
2023-05-05T11:05:15.270Z,20.85
2023-05-05T11:06:15.023Z,21.18
2023-05-05T11:07:15.103Z,21.69
2023-05-05T11:08:14.979Z,22.25
2023-05-05T11:09:14.970Z,22.74
2023-05-05T11:10:15.242Z,23.19
2023-05-05T11:11:14.961Z,23.61
2023-05-05T11:12:14.947Z,23.77
2023-05-05T11:13:14.989Z,23.48
2023-05-05T11:14:14.917Z,22.90
2023-05-05T11:15:14.916Z,22.35
2023-05-05T11:16:14.973Z,21.79
2023-05-05T11:17:14.909Z,21.22
2023-05-05T11:18:14.985Z,20.84
2023-05-05T11:19:14.879Z,20.78
2023-05-05T11:20:14.904Z,20.99
2023-05-05T11:21:14.863Z,21.38
2023-05-05T11:22:14.847Z,21.89
2023-05-05T11:23:16.629Z,22.38
2023-05-05T11:24:14.831Z,22.74
2023-05-05T11:25:14.828Z,22.78
2023-05-05T11:26:14.857Z,22.69
2023-05-05T11:27:14.836Z,22.45
2023-05-05T11:28:14.885Z,22.12
2023-05-05T11:29:14.826Z,21.90
2023-05-05T11:30:15.741Z,21.76
2023-05-05T11:31:14.890Z,21.57
2023-05-05T11:32:14.788Z,21.39
2023-05-05T11:33:14.739Z,21.42
2023-05-05T11:34:14.786Z,21.61
2023-05-05T11:35:14.745Z,21.82
2023-05-05T11:36:14.773Z,22.01
2023-05-05T11:37:14.781Z,22.17
2023-05-05T11:38:14.724Z,22.34
2023-05-05T11:39:14.730Z,22.69
2023-05-05T11:40:14.742Z,23.18
2023-05-05T11:41:14.707Z,23.64
2023-05-05T11:42:14.686Z,24.01
2023-05-05T11:43:14.636Z,24.34
2023-05-05T11:44:14.663Z,24.47
2023-05-05T11:45:14.620Z,24.50
2023-05-05T11:46:14.732Z,24.47
2023-05-05T11:47:14.679Z,24.47
2023-05-05T11:48:14.737Z,24.61
2023-05-05T11:49:14.620Z,24.75
2023-05-05T11:50:14.613Z,24.83
2023-05-05T11:51:14.583Z,24.90
2023-05-05T11:52:14.660Z,24.98
2023-05-05T11:53:14.566Z,25.06
2023-05-05T11:54:14.586Z,25.19
2023-05-05T11:55:14.545Z,25.33
2023-05-05T11:56:14.580Z,25.43
2023-05-05T11:57:14.526Z,25.49
2023-05-05T11:58:14.523Z,25.47
2023-05-05T11:59:14.543Z,25.38
2023-05-05T12:00:14.551Z,25.23
2023-05-05T12:01:14.538Z,25.06
2023-05-05T12:02:14.641Z,24.85
2023-05-05T12:03:14.556Z,24.62
2023-05-05T12:04:14.605Z,24.42
2023-05-05T12:05:14.448Z,24.30
2023-05-05T12:06:14.447Z,24.26
2023-05-05T12:07:14.445Z,24.24
2023-05-05T12:08:14.417Z,24.26
2023-05-05T12:09:14.387Z,24.29
2023-05-05T12:10:14.403Z,24.21
2023-05-05T12:11:14.375Z,23.93
2023-05-05T12:12:14.392Z,23.53
2023-05-05T12:13:14.416Z,23.24
2023-05-05T12:14:14.369Z,23.17
2023-05-05T12:15:14.357Z,23.30
2023-05-05T12:16:14.365Z,23.60
2023-05-05T12:17:14.348Z,23.97
2023-05-05T12:18:14.319Z,24.23
2023-05-05T12:19:14.324Z,24.38
2023-05-05T12:20:14.418Z,24.53
2023-05-05T12:21:14.296Z,24.62
2023-05-05T12:22:14.271Z,24.68
2023-05-05T12:23:14.274Z,24.51
2023-05-05T12:24:14.249Z,24.12
2023-05-05T12:25:14.264Z,23.72
2023-05-05T12:26:14.262Z,23.41
2023-05-05T12:27:14.270Z,23.34
2023-05-05T12:28:14.328Z,23.42
2023-05-05T12:29:14.244Z,23.56
2023-05-05T12:30:14.197Z,23.56
2023-05-05T12:31:14.401Z,23.51
2023-05-05T12:32:14.340Z,23.56
2023-05-05T12:33:14.207Z,23.48
2023-05-05T12:34:14.201Z,23.15
2023-05-05T12:35:14.352Z,22.78
2023-05-05T12:36:14.169Z,22.53
2023-05-05T12:37:14.179Z,22.42
2023-05-05T12:38:14.176Z,22.46
2023-05-05T12:39:14.169Z,22.66
2023-05-05T12:40:14.120Z,22.81
2023-05-05T12:41:14.109Z,22.85
2023-05-05T12:42:14.113Z,22.92
2023-05-05T12:43:14.116Z,23.12
2023-05-05T12:44:14.117Z,23.48
2023-05-05T12:45:14.099Z,23.89
2023-05-05T12:46:14.077Z,24.21
2023-05-05T12:47:14.128Z,24.21
2023-05-05T12:48:14.075Z,23.95
2023-05-05T12:49:14.043Z,23.75
2023-05-05T12:50:14.041Z,23.75
2023-05-05T12:51:14.039Z,23.59
2023-05-05T12:52:14.018Z,23.22
2023-05-05T12:53:14.007Z,22.90
2023-05-05T12:54:13.992Z,22.64
2023-05-05T12:55:13.990Z,22.34
2023-05-05T12:56:13.974Z,22.07
2023-05-05T12:57:13.988Z,21.93
2023-05-05T12:58:13.957Z,21.97
2023-05-05T12:59:13.942Z,22.19
2023-05-05T13:00:13.908Z,22.53